Time;durP1;ratioP1;P1;durP2;ratioP2;P2;SDS_P1;SDS_P2;PMS_P1;PMS_P2;Temp;Humidity;BMP_temperature;BMP_pressure;BME280_temperature;BME280_humidity;BME280_pressure;Samples;Min_cycle;Max_cycle;Signal;HPM_P1;HPM_P2
2021/01/27 00:00:11;;;;;;;21.87;11.10;;;;;;;-0.99;99.00;100730.31;5008342;28;20223;-80
2021/01/27 00:02:37;;;;;;;23.30;11.00;;;;;;;-1.00;98.61;100736.28;5009960;28;20192;-79
2021/01/27 00:05:06;;;;;;;23.33;11.53;;;;;;;-1.03;98.87;100733.66;5003392;28;20436;-80
2021/01/27 00:07:32;;;;;;;24.80;11.67;;;;;;;-1.08;98.92;100732.69;5014321;28;20233;-79
2021/01/27 00:09:58;;;;;;;28.67;12.83;;;;;;;-1.17;98.85;100734.19;5009263;28;20200;-78
2021/01/27 00:12:24;;;;;;;23.03;11.70;;;;;;;-1.22;99.05;100734.91;5008814;28;20235;-78
2021/01/27 00:14:50;;;;;;;21.53;10.57;;;;;;;-1.26;99.26;100733.13;4987327;28;20208;-78
2021/01/27 00:17:17;;;;;;;19.20;10.93;;;;;;;-1.33;99.41;100732.09;5010457;28;20565;-78
2021/01/27 00:19:42;;;;;;;25.70;11.93;;;;;;;-1.30;100.00;100731.28;5007205;28;20231;-80
2021/01/27 00:22:09;;;;;;;18.77;9.90;;;;;;;-1.31;100.00;100734.69;5000461;28;20201;-79
2021/01/27 00:24:36;;;;;;;20.77;11.00;;;;;;;-1.35;99.72;100742.28;5012341;28;20675;-80
2021/01/27 00:27:02;;;;;;;22.57;10.73;;;;;;;-1.41;99.82;100731.03;4991619;28;20225;-80
2021/01/27 00:29:27;;;;;;;18.37;10.17;;;;;;;-1.46;99.53;100724.94;5010647;28;20193;-78
2021/01/27 00:31:53;;;;;;;18.93;10.23;;;;;;;-1.47;99.49;100729.22;4987092;28;20274;-78
2021/01/27 00:34:21;;;;;;;21.80;10.97;;;;;;;-1.49;99.69;100737.69;5012626;28;20204;-78
2021/01/27 00:36:48;;;;;;;20.57;10.53;;;;;;;-1.46;100.00;100741.19;4999368;28;20642;-76
2021/01/27 00:39:13;;;;;;;20.37;9.97;;;;;;;-1.41;100.00;100738.72;5006787;28;20208;-78
2021/01/27 00:41:40;;;;;;;20.30;9.57;;;;;;;-1.37;100.00;100743.09;5005463;28;20235;-76
2021/01/27 00:44:05;;;;;;;20.53;9.93;;;;;;;-1.36;100.00;100730.31;5005053;28;20703;-77
2021/01/27 00:46:31;;;;;;;21.40;10.30;;;;;;;-1.31;100.00;100735.56;5007633;28;20229;-77
2021/01/27 00:48:57;;;;;;;23.70;10.90;;;;;;;-1.26;100.00;100738.25;5006758;28;20562;-78
2021/01/27 00:51:24;;;;;;;17.13;9.70;;;;;;;-1.20;100.00;100743.47;5005462;28;20215;-77
2021/01/27 00:53:50;;;;;;;20.83;10.63;;;;;;;-1.17;100.00;100741.84;4989835;28;20197;-78
2021/01/27 00:56:19;;;;;;;19.50;10.27;;;;;;;-1.12;100.00;100752.22;4990497;28;20220;-77
2021/01/27 00:58:46;;;;;;;23.80;11.10;;;;;;;-1.10;100.00;100758.22;4983307;28;20193;-78
2021/01/27 01:01:23;;;;;;;20.43;10.83;;;;;;;-1.07;100.00;100749.75;5002618;28;20209;-76
2021/01/27 01:03:49;;;;;;;20.97;11.07;;;;;;;-1.03;100.00;100747.31;5004427;28;20400;-78
2021/01/27 01:06:15;;;;;;;21.67;11.63;;;;;;;-0.99;100.00;100746.53;5007193;28;20734;-78
2021/01/27 01:08:42;;;;;;;21.97;10.93;;;;;;;-0.96;100.00;100751.72;5004679;28;20220;-77
2021/01/27 01:11:07;;;;;;;19.90;10.50;;;;;;;-0.92;100.00;100751.81;5006978;28;20250;-77
2021/01/27 01:13:33;;;;;;;20.63;10.50;;;;;;;-0.93;100.00;100747.50;4997848;28;20196;-78
2021/01/27 01:16:00;;;;;;;25.40;11.20;;;;;;;-0.90;99.99;100747.59;5011225;28;20594;-76
2021/01/27 01:18:26;;;;;;;19.33;10.73;;;;;;;-0.89;99.96;100750.19;5007727;28;20216;-78
2021/01/27 01:20:52;;;;;;;18.93;10.13;;;;;;;-0.87;100.00;100751.06;5004234;28;20189;-78
2021/01/27 01:23:20;;;;;;;23.13;10.93;;;;;;;-0.85;100.00;100749.41;5008280;28;20692;-78
2021/01/27 01:25:47;;;;;;;23.20;10.97;;;;;;;-0.81;99.84;100750.34;5010259;28;20221;-78
2021/01/27 01:28:14;;;;;;;20.80;10.03;;;;;;;-0.81;99.77;100750.34;5006639;28;20251;-77
2021/01/27 01:30:42;;;;;;;20.77;10.87;;;;;;;-0.80;99.76;100754.66;5005238;28;20235;-77
2021/01/27 01:33:11;;;;;;;17.10;9.97;;;;;;;-0.82;99.87;100754.59;4991041;28;20201;-77
2021/01/27 01:35:37;;;;;;;19.20;10.17;;;;;;;-0.81;99.78;100760.59;4990784;28;20331;-78
2021/01/27 01:38:03;;;;;;;21.60;10.60;;;;;;;-0.81;99.85;100756.34;5003085;28;20207;-76
2021/01/27 01:40:34;;;;;;;20.27;10.33;;;;;;;-0.80;100.00;100747.81;5009795;28;20192;-77
2021/01/27 01:43:08;;;;;;;17.27;10.10;;;;;;;-0.80;100.00;100747.81;5013241;28;20226;-77
2021/01/27 01:45:36;;;;;;;18.93;10.07;;;;;;;-0.80;99.98;100742.69;5009656;28;20736;-78
2021/01/27 01:48:11;;;;;;;20.87;10.90;;;;;;;-0.79;100.00;100749.56;5005449;28;20216;-78
2021/01/27 01:50:37;;;;;;;20.53;11.13;;;;;;;-0.80;100.00;100742.69;5001443;28;20192;-77
2021/01/27 01:53:03;;;;;;;20.83;10.80;;;;;;;-0.80;100.00;100741.84;5013021;28;20663;-77
2021/01/27 01:55:29;;;;;;;18.87;10.20;;;;;;;-0.80;99.69;100740.13;5006734;28;20220;-77
2021/01/27 01:57:56;;;;;;;20.07;10.10;;;;;;;-0.79;100.00;100746.16;5014735;28;20196;-77
2021/01/27 02:00:26;;;;;;;19.83;11.07;;;;;;;-0.80;99.82;100734.16;5005063;28;20608;-78
2021/01/27 02:02:52;;;;;;;20.07;10.43;;;;;;;-0.79;99.84;100746.16;5025971;28;20204;-76
2021/01/27 02:05:19;;;;;;;20.30;10.97;;;;;;;-0.80;100.00;100739.28;5015691;28;20220;-76
2021/01/27 02:07:46;;;;;;;18.67;9.63;;;;;;;-0.83;99.94;100740.06;5012025;28;20209;-75
2021/01/27 02:10:14;;;;;;;20.33;10.27;;;;;;;-0.81;100.00;100742.66;5011516;28;20201;-76
2021/01/27 02:12:52;;;;;;;18.10;9.93;;;;;;;-0.80;99.84;100737.56;5029012;28;20205;-76
2021/01/27 02:16:09;;;;;;;19.80;9.77;;;;;;;-0.77;99.93;100739.34;5005861;28;20607;-77
2021/01/27 02:18:49;;;;;;;18.10;9.27;;;;;;;-0.81;99.58;100737.53;4959706;28;20232;-77
2021/01/27 02:21:56;;;;;;;21.60;9.97;;;;;;;-0.82;99.87;100739.25;5004510;28;20726;-78
2021/01/27 02:24:50;;;;;;;17.33;10.13;;;;;;;-0.83;99.93;100737.50;5017769;28;20227;-78
2021/01/27 02:27:24;;;;;;;18.47;10.50;;;;;;;-0.83;99.75;100734.94;4992569;28;20928;-76
2021/01/27 02:30:14;;;;;;;20.77;11.07;;;;;;;-0.83;99.91;100734.94;5008345;28;20279;-77
2021/01/27 02:33:01;;;;;;;19.70;9.73;;;;;;;-0.81;99.99;100734.97;5002947;28;20676;-78
2021/01/27 02:35:31;;;;;;;20.67;10.60;;;;;;;-0.82;100.00;100731.56;5006690;28;20231;-77
2021/01/27 02:38:01;;;;;;;25.40;11.20;;;;;;;-0.83;99.95;100732.38;5006019;28;20212;-76
2021/01/27 02:40:33;;;;;;;18.93;9.67;;;;;;;-0.82;99.97;100734.13;5011547;28;20209;-77
2021/01/27 02:43:11;;;;;;;21.07;10.10;;;;;;;-0.84;100.00;100733.22;5008230;28;20197;-77
2021/01/27 02:45:42;;;;;;;20.10;10.17;;;;;;;-0.84;100.00;100734.94;5003601;28;20232;-78
2021/01/27 02:48:13;;;;;;;22.27;10.93;;;;;;;-0.85;100.00;100731.50;5006217;28;20591;-77
2021/01/27 02:50:42;;;;;;;19.30;9.87;;;;;;;-0.85;100.00;100728.94;5009537;28;20204;-76
2021/01/27 02:53:17;;;;;;;20.00;10.80;;;;;;;-0.84;99.92;100735.78;5007230;28;20550;-78
2021/01/27 02:55:50;;;;;;;21.73;11.40;;;;;;;-0.84;100.00;100738.34;5011571;28;20212;-77
2021/01/27 02:58:22;;;;;;;18.07;9.87;;;;;;;-0.84;100.00;100732.38;5005917;28;20208;-77
2021/01/27 03:00:58;;;;;;;19.17;9.97;;;;;;;-0.84;100.00;100737.50;5010170;28;20201;-76
2021/01/27 03:03:30;;;;;;;19.83;10.53;;;;;;;-0.87;100.00;100734.84;4990351;28;20791;-78
2021/01/27 03:05:59;;;;;;;16.37;9.80;;;;;;;-0.85;100.00;100736.59;5006284;28;20765;-77
2021/01/27 03:08:27;;;;;;;22.30;10.83;;;;;;;-0.86;100.00;100734.00;5004480;28;20232;-77
2021/01/27 03:11:02;;;;;;;23.33;11.37;;;;;;;-0.88;100.00;100739.13;5013536;28;20713;-78
2021/01/27 03:13:28;;;;;;;20.60;10.63;;;;;;;-0.90;100.00;100738.19;4988857;28;20512;-78
2021/01/27 03:15:58;;;;;;;24.93;10.77;;;;;;;-0.93;100.00;100744.94;5010528;28;20703;-77
2021/01/27 03:18:29;;;;;;;19.30;10.33;;;;;;;-0.96;100.00;100733.81;5006580;28;20476;-77
2021/01/27 03:21:01;;;;;;;22.27;11.40;;;;;;;-0.95;100.00;100747.47;4992531;28;20451;-77
2021/01/27 03:23:36;;;;;;;24.87;11.70;;;;;;;-0.93;100.00;100750.94;5005870;28;20716;-77
2021/01/27 03:26:08;;;;;;;21.03;10.10;;;;;;;-0.92;100.00;100741.56;5012571;28;20267;-78
2021/01/27 03:28:39;;;;;;;23.80;11.63;;;;;;;-0.94;100.00;100749.22;5004488;28;20235;-77
2021/01/27 03:31:05;;;;;;;17.90;10.33;;;;;;;-0.94;100.00;100756.03;4994964;28;20209;-78
2021/01/27 03:33:36;;;;;;;21.50;11.13;;;;;;;-0.94;100.00;100756.03;5009466;28;20964;-78
2021/01/27 03:36:05;;;;;;;19.57;10.03;;;;;;;-0.95;100.00;100755.16;4991332;28;20226;-78
2021/01/27 03:38:36;;;;;;;21.80;11.27;;;;;;;-0.95;100.00;100762.81;5003347;28;20275;-78
2021/01/27 03:41:08;;;;;;;19.13;10.30;;;;;;;-0.94;100.00;100761.16;5007512;28;20694;-77
2021/01/27 03:43:39;;;;;;;21.10;11.00;;;;;;;-0.96;100.00;100761.97;5007258;28;20211;-77
2021/01/27 03:46:10;;;;;;;22.77;10.50;;;;;;;-0.98;100.00;100760.22;5006925;28;20228;-78
2021/01/27 03:48:39;;;;;;;22.20;11.17;;;;;;;-0.98;100.00;100760.22;5010089;28;20611;-77
2021/01/27 03:51:08;;;;;;;20.50;11.17;;;;;;;-1.00;100.00;100756.75;4990577;28;20240;-78
2021/01/27 03:53:34;;;;;;;21.90;11.33;;;;;;;-1.01;100.00;100767.81;5009538;28;20576;-77
2021/01/27 03:56:09;;;;;;;20.80;10.90;;;;;;;-1.04;100.00;100758.41;5008080;28;20216;-77
2021/01/27 03:58:39;;;;;;;22.13;11.50;;;;;;;-1.09;100.00;100759.09;5007946;28;20192;-78
2021/01/27 04:01:07;;;;;;;18.63;10.47;;;;;;;-1.17;100.00;100754.66;4987879;28;20216;-77
2021/01/27 04:03:33;;;;;;;15.80;9.47;;;;;;;-1.19;100.00;100753.75;5008222;28;20556;-78
2021/01/27 04:05:59;;;;;;;19.17;10.87;;;;;;;-1.23;100.00;100751.97;4978898;28;20221;-78
2021/01/27 04:08:26;;;;;;;18.73;9.60;;;;;;;-1.28;100.00;100753.53;5008069;28;20220;-77
2021/01/27 04:10:52;;;;;;;20.37;11.23;;;;;;;-1.30;100.00;100759.44;5005558;28;20545;-78
2021/01/27 04:13:18;;;;;;;20.97;10.87;;;;;;;-1.32;100.00;100764.50;5006859;28;20204;-77
2021/01/27 04:15:44;;;;;;;20.00;10.37;;;;;;;-1.36;100.00;100763.56;5006658;28;20270;-77
2021/01/27 04:18:10;;;;;;;18.87;9.93;;;;;;;-1.40;100.00;100758.38;5011307;28;20693;-78
2021/01/27 04:20:36;;;;;;;21.93;10.73;;;;;;;-1.41;100.00;100759.19;5005770;28;20200;-77
2021/01/27 04:23:03;;;;;;;18.50;10.10;;;;;;;-1.42;100.00;100755.75;5010379;28;20206;-77
2021/01/27 04:25:29;;;;;;;22.30;10.30;;;;;;;-1.44;100.00;100751.41;4985197;28;20505;-78
2021/01/27 04:27:55;;;;;;;20.23;10.90;;;;;;;-1.47;100.00;100759.03;5002817;28;20223;-78
2021/01/27 04:30:24;;;;;;;18.50;10.47;;;;;;;-1.50;100.00;100759.81;5012205;28;20696;-77
2021/01/27 04:32:50;;;;;;;16.70;9.83;;;;;;;-1.53;100.00;100755.50;5006161;28;20212;-77
2021/01/27 04:35:18;;;;;;;20.20;10.47;;;;;;;-1.54;100.00;100755.47;5011719;28;20269;-80
2021/01/27 04:37:44;;;;;;;18.13;10.10;;;;;;;-1.59;100.00;100762.16;5000791;28;20453;-80
2021/01/27 04:40:14;;;;;;;17.73;9.40;;;;;;;-1.64;100.00;100759.47;5012000;28;20611;-80
2021/01/27 04:42:41;;;;;;;16.93;9.30;;;;;;;-1.68;100.00;100751.69;5006687;28;20845;-79
2021/01/27 04:45:09;;;;;;;18.67;9.37;;;;;;;-1.73;100.00;100754.97;5010227;28;20200;-80
2021/01/27 04:47:43;;;;;;;17.70;9.60;;;;;;;-1.76;100.00;100759.16;5001390;28;20789;-80
2021/01/27 04:50:17;;;;;;;17.33;9.43;;;;;;;-1.79;100.00;100751.41;5010540;28;20247;-80
2021/01/27 04:52:52;;;;;;;20.27;10.20;;;;;;;-1.81;100.00;100758.16;5007241;28;20208;-80
2021/01/27 04:55:34;;;;;;;18.90;9.73;;;;;;;-1.82;100.00;100748.78;5004369;28;20239;-80
2021/01/27 04:58:13;;;;;;;17.63;8.70;;;;;;;-1.83;100.00;100742.81;5014551;28;20200;-80
2021/01/27 05:04:14;;;;;;;16.53;8.87;;;;;;;-1.84;100.00;100741.06;4956794;28;20248;-73
2021/01/27 05:06:43;;;;;;;18.03;8.60;;;;;;;-1.84;100.00;100735.94;4967750;28;20257;-72
2021/01/27 05:09:13;;;;;;;18.63;9.57;;;;;;;-1.84;100.00;100732.53;4970883;28;20214;-74
2021/01/27 05:11:40;;;;;;;16.77;8.93;;;;;;;-1.86;100.00;100724.81;4962194;28;20234;-75
2021/01/27 05:14:09;;;;;;;16.87;9.23;;;;;;;-1.88;100.00;100730.69;4950663;28;20210;-75
2021/01/27 05:16:35;;;;;;;18.73;9.73;;;;;;;-1.89;100.00;100726.44;4958485;28;20210;-75
2021/01/27 05:19:05;;;;;;;19.37;10.10;;;;;;;-1.91;100.00;100746.84;4949269;28;20714;-75
2021/01/27 05:21:34;;;;;;;17.63;9.07;;;;;;;-1.93;100.00;100731.47;4957682;28;20226;-74
2021/01/27 05:24:01;;;;;;;20.17;9.50;;;;;;;-1.93;100.00;100740.81;4949657;28;20211;-75
2021/01/27 05:26:34;;;;;;;20.43;9.80;;;;;;;-1.94;100.00;100737.38;4952159;28;20201;-75
2021/01/27 05:29:04;;;;;;;17.47;10.13;;;;;;;-1.93;100.00;100746.78;4949874;28;20218;-74
2021/01/27 05:32:00;;;;;;;20.17;10.30;;;;;;;-1.90;100.00;100738.31;4958358;28;20234;-75
2021/01/27 05:34:28;;;;;;;17.20;9.13;;;;;;;-1.87;100.00;100728.19;4951897;28;20346;-75
2021/01/27 05:36:54;;;;;;;18.77;9.97;;;;;;;-1.84;100.00;100729.97;4947012;28;20284;-74
2021/01/27 05:39:26;;;;;;;21.40;10.50;;;;;;;-1.83;100.00;100727.47;4953485;28;20656;-75
2021/01/27 05:42:04;;;;;;;18.30;10.13;;;;;;;-1.80;100.00;100726.66;4950248;28;20281;-75
2021/01/27 05:44:30;;;;;;;20.53;10.77;;;;;;;-1.79;100.00;100723.28;4950905;28;20681;-75
2021/01/27 05:46:56;;;;;;;22.43;10.93;;;;;;;-1.80;100.00;100726.66;4955616;28;20256;-75
2021/01/27 05:49:28;;;;;;;21.83;11.50;;;;;;;-1.80;100.00;100724.97;4937755;29;20598;-75
2021/01/27 05:52:10;;;;;;;23.43;11.20;;;;;;;-1.80;100.00;100724.97;4958302;28;20219;-74
2021/01/27 05:54:36;;;;;;;21.50;11.33;;;;;;;-1.79;100.00;100726.72;4946651;28;20218;-74
2021/01/27 05:57:03;;;;;;;23.43;11.83;;;;;;;-1.80;100.00;100722.41;4953977;28;20562;-75
2021/01/27 05:59:29;;;;;;;24.73;12.33;;;;;;;-1.82;100.00;100720.66;4951097;28;20227;-74
2021/01/27 06:02:00;;;;;;;24.77;12.63;;;;;;;-1.82;100.00;100718.94;4949747;28;20242;-75
2021/01/27 06:04:30;;;;;;;25.07;11.63;;;;;;;-1.85;100.00;100723.13;4949146;28;20282;-75
2021/01/27 06:06:59;;;;;;;24.53;12.00;;;;;;;-1.86;100.00;100726.53;4957962;28;21925;-75
2021/01/27 06:09:40;;;;;;;24.83;11.60;;;;;;;-1.86;100.00;100729.06;4949591;28;20294;-74
2021/01/27 06:12:11;;;;;;;23.53;11.70;;;;;;;-1.88;100.00;100730.69;4946473;28;20686;-75
2021/01/27 06:14:37;;;;;;;24.60;10.93;;;;;;;-1.92;100.00;100728.09;4950231;28;20230;-75
2021/01/27 06:17:22;;;;;;;22.23;11.07;;;;;;;-1.96;100.00;100722.84;4952300;28;20198;-75
2021/01/27 06:20:01;;;;;;;22.17;11.07;;;;;;;-1.94;100.00;100724.59;4945035;28;20571;-73
2021/01/27 06:22:48;;;;;;;19.70;10.20;;;;;;;-1.91;100.00;100734.06;4952097;28;20229;-75
2021/01/27 06:25:26;;;;;;;21.60;10.37;;;;;;;-1.94;100.00;100736.53;4946806;28;20214;-75
2021/01/27 06:28:15;;;;;;;21.10;10.40;;;;;;;-2.00;100.00;100733.81;4948919;28;20218;-75
2021/01/27 06:30:49;;;;;;;20.47;10.73;;;;;;;-2.05;100.00;100726.03;4949052;28;20210;-73
2021/01/27 06:34:00;;;;;;;18.43;9.83;;;;;;;-2.11;100.00;100725.84;4955274;28;20273;-74
2021/01/27 06:36:51;;;;;;;17.87;9.40;;;;;;;-2.16;100.00;100728.28;4940274;28;20618;-73
2021/01/27 06:39:45;;;;;;;20.30;10.20;;;;;;;-2.21;100.00;100724.75;4965489;28;20191;-73
2021/01/27 06:42:26;;;;;;;22.33;11.30;;;;;;;-2.25;100.00;100722.94;4947689;28;20214;-74
2021/01/27 06:45:05;;;;;;;17.43;9.90;;;;;;;-2.27;100.00;100724.56;4950752;28;20675;-72
2021/01/27 06:48:08;;;;;;;23.17;9.97;;;;;;;-2.28;100.00;100727.94;4959030;28;20198;-73
2021/01/27 06:51:03;;;;;;;20.03;9.87;;;;;;;-2.26;100.00;100731.41;4943512;28;20229;-73
2021/01/27 06:53:50;;;;;;;16.10;9.53;;;;;;;-2.23;100.00;100734.06;4945085;28;20314;-72
2021/01/27 06:56:32;;;;;;;18.47;9.23;;;;;;;-2.20;100.00;100741.81;4949072;28;20240;-72
2021/01/27 06:59:29;;;;;;;18.40;9.93;;;;;;;-2.18;100.00;100734.16;4951438;28;20218;-73
2021/01/27 07:02:19;;;;;;;17.97;9.07;;;;;;;-2.13;100.00;100746.25;4952042;28;20758;-73
2021/01/27 07:05:02;;;;;;;29.10;13.20;;;;;;;-2.08;100.00;100750.63;4954581;28;20970;-73
2021/01/27 07:07:50;;;;;;;25.57;11.43;;;;;;;-2.05;100.00;100749.03;4951187;28;20217;-75
2021/01/27 07:10:51;;;;;;;37.20;16.10;;;;;;;-2.01;100.00;100749.97;4950695;28;20217;-75
2021/01/27 07:13:56;;;;;;;47.23;18.93;;;;;;;-1.99;100.00;100749.16;4928649;28;20211;-75
2021/01/27 07:16:35;;;;;;;34.20;15.33;;;;;;;-1.98;100.00;100755.16;4947264;28;20578;-73
2021/01/27 07:19:20;;;;;;;20.93;11.20;;;;;;;-1.96;100.00;100751.81;4950133;28;20214;-75
2021/01/27 07:21:52;;;;;;;23.30;11.40;;;;;;;-1.97;100.00;100752.66;4950985;28;20618;-75
2021/01/27 07:24:24;;;;;;;20.20;11.13;;;;;;;-1.94;100.00;100762.94;4952533;28;20677;-75
2021/01/27 07:26:55;;;;;;;22.30;10.90;;;;;;;-1.89;100.00;100759.66;4946874;28;20202;-75
2021/01/27 07:29:26;;;;;;;18.97;9.83;;;;;;;-1.85;100.00;100753.78;4955132;28;20227;-75
2021/01/27 07:31:56;;;;;;;29.20;12.20;;;;;;;-1.81;100.00;100753.94;4949164;28;20233;-75
2021/01/27 07:34:29;;;;;;;22.50;11.47;;;;;;;-1.78;100.00;100763.34;4956347;28;20602;-75
2021/01/27 07:37:06;;;;;;;19.60;10.07;;;;;;;-1.74;100.00;100760.94;4949233;28;20504;-74
2021/01/27 07:39:41;;;;;;;22.50;11.27;;;;;;;-1.69;100.00;100765.28;4941367;28;20209;-75
2021/01/27 07:42:15;;;;;;;23.17;11.27;;;;;;;-1.66;100.00;100760.25;4948217;28;20560;-74
2021/01/27 07:44:44;;;;;;;27.03;11.93;;;;;;;-1.61;100.00;100757.00;4951717;28;20571;-74
2021/01/27 07:47:19;;;;;;;24.67;12.40;;;;;;;-1.60;100.00;100756.19;4948158;28;20237;-75
2021/01/27 07:49:51;;;;;;;22.47;11.17;;;;;;;-1.56;100.00;100757.97;4952520;28;20229;-75
2021/01/27 07:52:24;;;;;;;22.20;10.43;;;;;;;-1.54;100.00;100758.88;4928279;29;20286;-75
2021/01/27 07:54:56;;;;;;;21.73;11.23;;;;;;;-1.48;100.00;100753.03;4957782;28;20211;-75
2021/01/27 07:57:32;;;;;;;23.77;12.17;;;;;;;-1.47;100.00;100757.34;4947828;28;20207;-75
2021/01/27 08:00:07;;;;;;;21.10;10.17;;;;;;;-1.41;100.00;100749.81;4948031;28;20202;-74
2021/01/27 08:02:50;;;;;;;27.43;11.33;;;;;;;-1.38;100.00;100760.13;4946942;28;20230;-74
2021/01/27 08:05:17;;;;;;;25.73;11.50;;;;;;;-1.35;100.00;100756.78;4944125;28;20714;-73
2021/01/27 08:07:49;;;;;;;20.87;10.27;;;;;;;-1.31;100.00;100757.72;4947816;28;20746;-75
2021/01/27 08:10:22;;;;;;;22.33;10.17;;;;;;;-1.26;100.00;100753.59;4949670;28;20458;-75
2021/01/27 08:12:53;;;;;;;23.87;11.00;;;;;;;-1.23;100.00;100759.66;4945971;28;20251;-74
2021/01/27 08:15:42;;;;;;;25.80;11.90;;;;;;;-1.19;100.00;100763.13;4949020;28;20206;-72
2021/01/27 08:18:17;;;;;;;21.67;11.20;;;;;;;-1.16;100.00;100763.22;4949751;28;20199;-75
2021/01/27 08:20:44;;;;;;;22.13;10.70;;;;;;;-1.13;100.00;100763.28;4956026;28;20209;-75
2021/01/27 08:23:47;;;;;;;23.03;11.63;;;;;;;-1.09;100.00;100766.75;4948778;28;20237;-75
2021/01/27 08:26:51;;;;;;;20.60;10.60;;;;;;;-1.04;100.00;100765.19;4940342;28;20229;-75
2021/01/27 08:29:30;;;;;;;24.27;11.63;;;;;;;-1.00;100.00;100769.56;4948957;28;20316;-72
2021/01/27 08:32:21;;;;;;;26.20;11.30;;;;;;;-0.98;99.82;100761.06;4943259;28;20281;-75
2021/01/27 08:34:47;;;;;;;22.10;11.30;;;;;;;-0.94;99.06;100762.00;4949516;28;20202;-74
2021/01/27 08:37:19;;;;;;;23.87;12.40;;;;;;;-0.87;99.10;100761.31;4947307;28;20238;-74
2021/01/27 08:39:45;;;;;;;26.73;11.33;;;;;;;-0.80;99.11;100759.75;4948848;28;20194;-75
2021/01/27 08:42:32;;;;;;;27.23;12.17;;;;;;;-0.75;99.43;100749.63;4947433;28;20222;-72
2021/01/27 08:45:09;;;;;;;24.53;10.53;;;;;;;-0.72;98.80;100750.56;4962722;28;20213;-75
2021/01/27 08:47:38;;;;;;;24.17;10.63;;;;;;;-0.70;99.11;100745.44;4945529;28;20716;-75
2021/01/27 08:50:09;;;;;;;25.83;11.50;;;;;;;-0.65;98.58;100754.09;4949370;28;20198;-75
2021/01/27 08:52:38;;;;;;;23.57;11.97;;;;;;;-0.61;98.47;100743.97;4946058;28;20230;-74
2021/01/27 08:55:33;;;;;;;23.57;11.70;;;;;;;-0.54;98.34;100752.66;4948290;28;20209;-75
2021/01/27 08:58:20;;;;;;;24.00;11.03;;;;;;;-0.45;98.63;100746.84;4944459;28;20214;-74
2021/01/27 09:00:47;;;;;;;22.33;11.03;;;;;;;-0.41;98.18;100754.63;4952022;28;20219;-74
2021/01/27 09:03:59;;;;;;;21.00;11.37;;;;;;;-0.37;97.99;100742.72;4947072;28;20297;-75
2021/01/27 09:06:29;;;;;;;23.73;11.17;;;;;;;-0.29;98.28;100741.19;4947434;28;20200;-75
2021/01/27 09:09:07;;;;;;;20.20;10.63;;;;;;;-0.25;97.41;100737.00;4946249;28;20765;-74
2021/01/27 09:11:34;;;;;;;24.73;11.70;;;;;;;-0.22;97.50;100737.06;4943624;28;20227;-74
2021/01/27 09:14:05;;;;;;;20.60;11.27;;;;;;;-0.16;97.73;100746.56;4949692;28;20221;-74
2021/01/27 09:16:31;;;;;;;24.63;11.77;;;;;;;-0.13;97.57;100736.38;4956047;28;20280;-74
2021/01/27 09:18:59;;;;;;;23.07;10.80;;;;;;;-0.13;97.16;100733.81;4946437;28;20194;-74
2021/01/27 09:21:26;;;;;;;19.43;10.67;;;;;;;-0.09;96.81;100736.47;4935656;29;20608;-74
2021/01/27 09:23:56;;;;;;;25.63;12.20;;;;;;;-0.09;96.45;100733.03;4960648;28;20203;-74
2021/01/27 09:26:36;;;;;;;21.40;10.83;;;;;;;-0.06;96.62;100731.41;4948196;28;20203;-74
2021/01/27 09:29:09;;;;;;;19.53;10.33;;;;;;;0.01;97.00;100734.94;4944940;28;20279;-74
2021/01/27 09:31:35;;;;;;;20.17;10.47;;;;;;;0.02;96.39;100739.25;4952867;28;20236;-74
2021/01/27 09:34:14;;;;;;;23.13;10.47;;;;;;;0.07;96.80;100729.06;4933130;29;20204;-74
2021/01/27 09:36:41;;;;;;;20.40;10.17;;;;;;;0.11;96.83;100726.59;4947493;28;20210;-74
2021/01/27 09:39:08;;;;;;;20.73;10.50;;;;;;;0.15;96.41;100722.38;4949719;28;20402;-74
2021/01/27 09:41:35;;;;;;;19.63;10.57;;;;;;;0.16;95.79;100719.00;4956762;28;20230;-74
2021/01/27 09:44:03;;;;;;;18.50;10.30;;;;;;;0.22;95.72;100721.66;4948306;28;20216;-74
2021/01/27 09:46:33;;;;;;;24.83;11.10;;;;;;;0.22;95.16;100725.91;4953183;28;20210;-74
2021/01/27 09:49:06;;;;;;;17.93;10.30;;;;;;;0.27;95.43;100722.59;4949996;28;20222;-74
2021/01/27 09:51:33;;;;;;;21.47;12.23;;;;;;;0.32;96.00;100725.25;4952133;28;20225;-74
2021/01/27 09:54:01;;;;;;;22.67;12.13;;;;;;;0.40;95.56;100712.53;4951522;28;20208;-74
2021/01/27 09:56:29;;;;;;;19.43;10.60;;;;;;;0.36;94.87;100715.06;4957716;28;20212;-74
2021/01/27 09:58:56;;;;;;;20.57;10.60;;;;;;;0.36;94.92;100715.06;4952329;28;20202;-74
2021/01/27 10:01:26;;;;;;;17.50;9.73;;;;;;;0.43;94.96;100708.31;4952218;28;20217;-74
2021/01/27 10:03:54;;;;;;;19.40;10.50;;;;;;;0.52;95.07;100715.31;4946635;28;20210;-74
2021/01/27 10:06:36;;;;;;;19.97;10.80;;;;;;;0.61;94.93;100710.31;4958300;28;20244;-74
2021/01/27 10:09:08;;;;;;;18.60;10.67;;;;;;;0.65;94.50;100719.81;4947871;28;20708;-74
2021/01/27 10:11:35;;;;;;;18.90;9.70;;;;;;;0.65;94.23;100711.22;4951882;28;20233;-74
2021/01/27 10:14:05;;;;;;;17.63;10.20;;;;;;;0.66;94.52;100718.09;4949087;28;20289;-74
2021/01/27 10:16:31;;;;;;;19.93;10.60;;;;;;;0.71;93.98;100713.91;4957888;28;20542;-74
2021/01/27 10:19:04;;;;;;;17.93;10.57;;;;;;;0.74;94.08;100701.13;4950394;28;20209;-74
2021/01/27 10:21:30;;;;;;;20.37;11.00;;;;;;;0.81;94.39;100704.63;4951779;28;20223;-74
2021/01/27 10:23:56;;;;;;;19.00;10.87;;;;;;;0.80;93.70;100697.78;4951206;28;20748;-74
2021/01/27 10:26:36;;;;;;;17.00;10.40;;;;;;;0.82;93.13;100694.38;4952060;28;20198;-74
2021/01/27 10:29:23;;;;;;;17.33;9.80;;;;;;;0.85;93.29;100693.59;4948444;28;20222;-74
2021/01/27 10:31:51;;;;;;;18.37;9.50;;;;;;;0.93;93.66;100692.84;4946680;28;20227;-74
2021/01/27 10:34:40;;;;;;;19.83;10.53;;;;;;;0.94;93.21;100691.16;4950812;28;20424;-74
2021/01/27 10:37:25;;;;;;;18.63;9.87;;;;;;;0.96;92.54;100689.47;4948603;28;20605;-74
2021/01/27 10:40:23;;;;;;;22.53;11.60;;;;;;;1.04;93.05;100695.56;4933238;28;20252;-74
2021/01/27 10:46:36;;;;;;;21.50;11.47;;;;;;;1.03;91.67;100686.13;4946569;28;20199;-74
2021/01/27 10:49:02;;;;;;;18.57;11.07;;;;;;;1.10;92.31;100687.94;4934044;28;20585;-74
2021/01/27 10:51:28;;;;;;;19.00;10.57;;;;;;;1.06;92.20;100688.75;4949592;28;20729;-72
2021/01/27 10:53:54;;;;;;;18.07;10.90;;;;;;;1.11;92.16;100684.53;4949664;28;20209;-74
2021/01/27 10:56:20;;;;;;;20.37;10.67;;;;;;;1.16;91.58;100691.44;4946861;28;20571;-74
2021/01/27 10:58:47;;;;;;;17.47;10.47;;;;;;;1.19;91.54;100683.78;4955950;28;20198;-74
2021/01/27 11:01:13;;;;;;;17.53;10.10;;;;;;;1.17;90.71;100686.31;4945126;28;20237;-74
2021/01/27 11:03:38;;;;;;;16.83;10.43;;;;;;;1.18;90.63;100675.22;4945751;28;20214;-74
2021/01/27 11:06:05;;;;;;;19.67;10.67;;;;;;;1.23;90.54;100673.56;4946664;28;20215;-74
2021/01/27 11:08:33;;;;;;;16.53;9.50;;;;;;;1.24;91.00;100677.00;4945727;28;20646;-74
2021/01/27 11:11:01;;;;;;;15.90;9.20;;;;;;;1.28;90.21;100673.63;4948595;28;20297;-74
2021/01/27 11:13:28;;;;;;;16.63;10.13;;;;;;;1.32;90.41;100671.13;4950096;28;20235;-74
2021/01/27 11:15:54;;;;;;;16.53;9.80;;;;;;;1.44;90.71;100672.09;4946873;28;20788;-74
2021/01/27 11:18:21;;;;;;;16.63;9.53;;;;;;;1.49;90.91;100665.31;4949051;28;20210;-72
2021/01/27 11:20:47;;;;;;;16.40;9.73;;;;;;;1.56;90.43;100668.81;4948715;28;20659;-72
2021/01/27 11:23:13;;;;;;;17.07;9.60;;;;;;;1.60;90.00;100662.84;4949069;28;20447;-72
2021/01/27 11:25:40;;;;;;;16.77;10.27;;;;;;;1.65;90.00;100661.19;4945758;28;20892;-72
2021/01/27 11:28:06;;;;;;;18.07;9.23;;;;;;;1.69;90.12;100663.84;4947290;28;20203;-74
2021/01/27 11:30:32;;;;;;;15.10;9.47;;;;;;;1.65;88.21;100656.94;4945118;28;20237;-74
2021/01/27 11:32:59;;;;;;;13.57;9.00;;;;;;;1.72;88.19;100657.00;4951769;28;20214;-74
2021/01/27 11:35:25;;;;;;;16.17;9.33;;;;;;;1.78;88.32;100657.06;4946996;28;20206;-74
2021/01/27 11:37:52;;;;;;;17.13;9.03;;;;;;;1.75;87.98;100660.44;4964480;28;20214;-74